KLM274 GMMN-KEWR
Flight info
| Callsign | KLM274 |
|---|---|
| Flight time | N/A |
| Altitude | 38000 |
| Route | RAVOL UH500 NISBA DCT MANOX/M084F380 DCT LENSI DCT 42N030W 43N040W 44N050W DCT LOMPI/N0480F380 N56G BRADD DCT NELIE FLOSI4 |
| Aircraft | A359/H-SDE2E3GHIJ3J4J5LM1ORWXY/LB1D1 |
Departure
| Time | 2026-04-29 18:27 |
|---|---|
| Airport | Mohammed V International Airport (GMMN) |
Arrival
| Time | N/A |
|---|---|
| Airport | Newark Liberty International Airport (KEWR) |
| Time | Latitude | Longitude | Altitude | Speed | Heading |
|---|---|---|---|---|---|
| 2026-04-29 18:12 | 33.35966 | -7.57900 | 661 ft | 0 kts | 169° |
| 2026-04-29 18:25 | 33.35965 | -7.57900 | 661 ft | 1 kts | 169° |
| 2026-04-29 18:25 | 33.35892 | -7.57885 | 661 ft | 17 kts | 171° |
| 2026-04-29 18:25 | 33.35768 | -7.57861 | 661 ft | 19 kts | 171° |
| 2026-04-29 18:26 | 33.35643 | -7.57882 | 662 ft | 18 kts | 215° |
| 2026-04-29 18:26 | 33.35592 | -7.58018 | 662 ft | 19 kts | 253° |
| 2026-04-29 18:26 | 33.35547 | -7.58203 | 662 ft | 26 kts | 255° |
| 2026-04-29 18:26 | 33.35556 | -7.58373 | 661 ft | 22 kts | 321° |
| 2026-04-29 18:27 | 33.35793 | -7.58459 | 659 ft | 62 kts | 345° |
| 2026-04-29 18:27 | 33.36404 | -7.58668 | 660 ft | 118 kts | 345° |
| 2026-04-29 18:27 | 33.37355 | -7.58997 | 685 ft | 161 kts | 344° |
| 2026-04-29 18:27 | 33.38385 | -7.59352 | 1426 ft | 149 kts | 344° |
| 2026-04-29 18:28 | 33.39390 | -7.59699 | 1939 ft | 161 kts | 343° |
| 2026-04-29 18:28 | 33.40524 | -7.60202 | 2113 ft | 189 kts | 328° |
| 2026-04-29 18:28 | 33.41306 | -7.61588 | 2160 ft | 221 kts | 287° |
| 2026-04-29 18:28 | 33.41483 | -7.63460 | 2620 ft | 230 kts | 277° |
| 2026-04-29 18:29 | 33.41596 | -7.65367 | 3137 ft | 236 kts | 275° |
| 2026-04-29 18:29 | 33.41762 | -7.67343 | 3648 ft | 241 kts | 276° |
| 2026-04-29 18:29 | 33.41971 | -7.69346 | 4236 ft | 243 kts | 275° |
| 2026-04-29 18:29 | 33.42206 | -7.71355 | 4839 ft | 245 kts | 275° |
| 2026-04-29 18:30 | 33.42453 | -7.73378 | 5428 ft | 245 kts | 275° |
| 2026-04-29 18:30 | 33.42704 | -7.75394 | 6003 ft | 246 kts | 276° |
| 2026-04-29 18:30 | 33.42964 | -7.77422 | 6570 ft | 247 kts | 276° |
| 2026-04-29 18:30 | 33.43228 | -7.79462 | 7099 ft | 249 kts | 277° |
| 2026-04-29 18:31 | 33.43495 | -7.81519 | 7618 ft | 251 kts | 276° |
| 2026-04-29 18:31 | 33.43764 | -7.83597 | 8132 ft | 253 kts | 276° |
| 2026-04-29 18:31 | 33.44036 | -7.85688 | 8683 ft | 255 kts | 277° |
| 2026-04-29 18:31 | 33.44308 | -7.87795 | 9193 ft | 258 kts | 277° |
| 2026-04-29 18:32 | 33.44584 | -7.89923 | 9749 ft | 260 kts | 277° |
| 2026-04-29 18:32 | 33.45046 | -7.93497 | 10560 ft | 263 kts | 277° |
| 2026-04-29 18:32 | 33.45421 | -7.96405 | 11206 ft | 266 kts | 277° |
| 2026-04-29 18:33 | 33.45715 | -7.98597 | 11685 ft | 268 kts | 279° |
| 2026-04-29 18:33 | 33.46168 | -8.00776 | 12170 ft | 271 kts | 283° |
| 2026-04-29 18:33 | 33.46615 | -8.02970 | 12644 ft | 272 kts | 281° |
| 2026-04-29 18:33 | 33.46993 | -8.05201 | 13142 ft | 274 kts | 278° |
| 2026-04-29 18:34 | 33.47318 | -8.07458 | 13615 ft | 276 kts | 277° |
| 2026-04-29 18:34 | 33.47516 | -8.08961 | 13919 ft | 277 kts | 277° |
| 2026-04-29 18:34 | 33.47894 | -8.12021 | 14505 ft | 279 kts | 276° |
| 2026-04-29 18:34 | 33.48167 | -8.14329 | 14943 ft | 280 kts | 276° |
| 2026-04-29 18:35 | 33.48434 | -8.16638 | 15409 ft | 281 kts | 276° |
| 2026-04-29 18:35 | 33.48700 | -8.18962 | 15874 ft | 282 kts | 275° |
| 2026-04-29 18:35 | 33.48964 | -8.21291 | 16343 ft | 283 kts | 275° |
| 2026-04-29 18:35 | 33.49229 | -8.23634 | 16806 ft | 284 kts | 275° |
| 2026-04-29 18:36 | 33.49494 | -8.25987 | 17269 ft | 286 kts | 275° |
| 2026-04-29 18:36 | 33.49760 | -8.28352 | 17729 ft | 287 kts | 275° |
| 2026-04-29 18:36 | 33.50027 | -8.30730 | 18190 ft | 289 kts | 275° |
| 2026-04-29 18:36 | 33.50294 | -8.33116 | 18599 ft | 290 kts | 275° |
| 2026-04-29 18:37 | 33.50563 | -8.35524 | 18976 ft | 293 kts | 275° |
| 2026-04-29 18:37 | 33.50834 | -8.37953 | 19339 ft | 295 kts | 275° |
| 2026-04-29 18:37 | 33.51106 | -8.40398 | 19733 ft | 297 kts | 274° |
| 2026-04-29 18:37 | 33.51379 | -8.42859 | 20118 ft | 299 kts | 274° |
| 2026-04-29 18:38 | 33.51653 | -8.45330 | 20503 ft | 300 kts | 275° |
| 2026-04-29 18:38 | 33.52036 | -8.47804 | 20873 ft | 304 kts | 281° |
| 2026-04-29 18:38 | 33.52624 | -8.50283 | 21095 ft | 314 kts | 284° |
| 2026-04-29 18:38 | 33.53332 | -8.52799 | 21241 ft | 324 kts | 286° |
| 2026-04-29 18:39 | 33.54116 | -8.55380 | 21390 ft | 334 kts | 287° |
| 2026-04-29 18:39 | 33.54936 | -8.58019 | 21538 ft | 342 kts | 287° |
| 2026-04-29 18:39 | 33.55774 | -8.60731 | 21688 ft | 351 kts | 287° |
| 2026-04-29 18:39 | 33.56621 | -8.63506 | 21835 ft | 359 kts | 287° |
| 2026-04-29 18:40 | 33.57477 | -8.66353 | 21994 ft | 366 kts | 287° |
| 2026-04-29 18:40 | 33.58341 | -8.69257 | 22145 ft | 374 kts | 286° |
| 2026-04-29 18:40 | 33.59217 | -8.72223 | 22276 ft | 381 kts | 286° |
| 2026-04-29 18:40 | 33.60108 | -8.75253 | 22430 ft | 388 kts | 286° |
| 2026-04-29 18:41 | 33.62867 | -8.84648 | 22830 ft | 407 kts | 286° |
| 2026-04-29 18:41 | 33.63811 | -8.87865 | 23054 ft | 410 kts | 287° |
| 2026-04-29 18:42 | 33.64758 | -8.91091 | 23391 ft | 410 kts | 287° |
| 2026-04-29 18:42 | 33.65706 | -8.94327 | 23644 ft | 412 kts | 286° |
| 2026-04-29 18:42 | 33.66660 | -8.97583 | 23864 ft | 414 kts | 286° |
| 2026-04-29 18:42 | 33.67654 | -9.00831 | 24084 ft | 416 kts | 289° |
| 2026-04-29 18:43 | 33.68867 | -9.04002 | 24324 ft | 419 kts | 292° |
| 2026-04-29 18:43 | 33.70163 | -9.07148 | 24565 ft | 421 kts | 294° |
| 2026-04-29 18:43 | 33.71479 | -9.10239 | 24802 ft | 422 kts | 294° |
| 2026-04-29 18:43 | 33.72853 | -9.13414 | 25027 ft | 424 kts | 294° |
| 2026-04-29 18:44 | 33.74222 | -9.16557 | 25266 ft | 425 kts | 294° |
| 2026-04-29 18:44 | 33.75590 | -9.19700 | 25488 ft | 426 kts | 294° |
| 2026-04-29 18:44 | 33.76964 | -9.22868 | 25718 ft | 427 kts | 294° |
| 2026-04-29 18:44 | 33.78337 | -9.26043 | 25967 ft | 429 kts | 294° |
| 2026-04-29 18:45 | 33.79709 | -9.29225 | 26222 ft | 430 kts | 294° |
| 2026-04-29 18:45 | 33.81083 | -9.32422 | 26461 ft | 431 kts | 294° |
| 2026-04-29 18:45 | 33.82461 | -9.35630 | 26710 ft | 432 kts | 294° |
| 2026-04-29 18:45 | 33.83840 | -9.38845 | 26959 ft | 434 kts | 294° |
| 2026-04-29 18:46 | 33.85224 | -9.42075 | 27213 ft | 435 kts | 294° |
| 2026-04-29 18:46 | 33.86613 | -9.45316 | 27526 ft | 435 kts | 294° |
| 2026-04-29 18:46 | 33.87998 | -9.48552 | 27814 ft | 436 kts | 294° |
| 2026-04-29 18:46 | 33.89392 | -9.51813 | 28057 ft | 439 kts | 294° |
| 2026-04-29 18:47 | 33.90784 | -9.55075 | 28322 ft | 440 kts | 294° |
| 2026-04-29 18:47 | 33.92169 | -9.58321 | 28591 ft | 442 kts | 294° |
| 2026-04-29 18:47 | 33.93574 | -9.61615 | 28862 ft | 443 kts | 294° |
| 2026-04-29 18:47 | 33.94979 | -9.64914 | 29149 ft | 444 kts | 294° |
| 2026-04-29 18:48 | 33.96393 | -9.68238 | 29426 ft | 446 kts | 294° |
| 2026-04-29 18:48 | 33.97809 | -9.71569 | 29708 ft | 448 kts | 294° |
| 2026-04-29 18:48 | 33.99231 | -9.74917 | 29999 ft | 449 kts | 294° |
| 2026-04-29 18:48 | 34.00655 | -9.78274 | 30252 ft | 451 kts | 294° |
| 2026-04-29 18:49 | 34.02086 | -9.81649 | 30491 ft | 453 kts | 294° |
| 2026-04-29 18:49 | 34.03519 | -9.85035 | 30744 ft | 455 kts | 294° |
| 2026-04-29 18:49 | 34.04955 | -9.88430 | 30964 ft | 457 kts | 294° |
| 2026-04-29 18:49 | 34.06400 | -9.91849 | 31233 ft | 458 kts | 294° |
| 2026-04-29 18:50 | 34.07849 | -9.95279 | 31494 ft | 459 kts | 294° |
| 2026-04-29 18:50 | 34.09295 | -9.98708 | 31799 ft | 459 kts | 294° |
| 2026-04-29 18:50 | 34.10745 | -10.02148 | 32028 ft | 461 kts | 294° |
| 2026-04-29 18:50 | 34.12199 | -10.05601 | 32252 ft | 462 kts | 294° |
| 2026-04-29 18:51 | 34.13652 | -10.09057 | 32482 ft | 464 kts | 294° |
| 2026-04-29 18:51 | 34.15115 | -10.12542 | 32698 ft | 465 kts | 294° |
| 2026-04-29 18:51 | 34.16579 | -10.16031 | 32894 ft | 466 kts | 294° |
| 2026-04-29 18:51 | 34.18045 | -10.19528 | 33104 ft | 468 kts | 294° |
| 2026-04-29 18:52 | 34.19514 | -10.23035 | 33281 ft | 469 kts | 294° |
| 2026-04-29 18:52 | 34.20990 | -10.26563 | 33470 ft | 471 kts | 294° |
| 2026-04-29 18:52 | 34.22467 | -10.30097 | 33662 ft | 472 kts | 294° |
| 2026-04-29 18:52 | 34.23945 | -10.33636 | 33955 ft | 471 kts | 294° |
| 2026-04-29 18:53 | 34.25414 | -10.37158 | 34245 ft | 469 kts | 294° |
| 2026-04-29 18:53 | 34.26883 | -10.40683 | 34503 ft | 468 kts | 294° |
| 2026-04-29 18:53 | 34.28347 | -10.44200 | 34741 ft | 468 kts | 294° |
| 2026-04-29 18:53 | 34.29803 | -10.47702 | 35022 ft | 466 kts | 294° |
| 2026-04-29 18:54 | 34.31258 | -10.51203 | 35320 ft | 464 kts | 294° |
| 2026-04-29 18:54 | 34.32704 | -10.54690 | 35569 ft | 463 kts | 294° |
| 2026-04-29 18:54 | 34.34148 | -10.58173 | 35810 ft | 463 kts | 293° |
| 2026-04-29 18:54 | 34.35589 | -10.61655 | 35981 ft | 464 kts | 293° |
| 2026-04-29 18:55 | 34.37035 | -10.65152 | 36191 ft | 464 kts | 293° |
| 2026-04-29 18:55 | 34.38475 | -10.68637 | 36428 ft | 463 kts | 293° |
| 2026-04-29 18:55 | 34.39914 | -10.72124 | 36685 ft | 462 kts | 293° |
| 2026-04-29 18:55 | 34.41348 | -10.75601 | 36919 ft | 461 kts | 293° |
| 2026-04-29 18:56 | 34.42779 | -10.79076 | 37146 ft | 461 kts | 293° |
| 2026-04-29 18:56 | 34.44206 | -10.82543 | 37369 ft | 460 kts | 293° |
| 2026-04-29 18:56 | 34.45632 | -10.86012 | 37584 ft | 459 kts | 293° |
| 2026-04-29 18:56 | 34.47052 | -10.89470 | 37790 ft | 459 kts | 293° |
| 2026-04-29 18:57 | 34.48473 | -10.92935 | 37950 ft | 459 kts | 293° |
| 2026-04-29 18:57 | 34.49894 | -10.96406 | 38010 ft | 462 kts | 292° |
| 2026-04-29 18:57 | 34.52750 | -11.03389 | 37980 ft | 462 kts | 292° |
| 2026-04-29 18:58 | 34.55605 | -11.10378 | 38000 ft | 462 kts | 292° |
| 2026-04-29 18:58 | 34.58451 | -11.17362 | 38001 ft | 462 kts | 292° |
| 2026-04-29 18:59 | 34.61296 | -11.24359 | 37984 ft | 462 kts | 292° |
| 2026-04-29 18:59 | 34.64116 | -11.31311 | 37981 ft | 462 kts | 292° |
| 2026-04-29 19:00 | 34.66957 | -11.38325 | 38004 ft | 464 kts | 292° |
| 2026-04-29 19:00 | 34.69800 | -11.45362 | 38002 ft | 464 kts | 292° |
| 2026-04-29 19:01 | 34.72640 | -11.52406 | 37992 ft | 463 kts | 292° |
| 2026-04-29 19:01 | 34.75465 | -11.59425 | 37989 ft | 462 kts | 292° |
| 2026-04-29 19:02 | 34.77827 | -11.65308 | 37988 ft | 462 kts | 292° |
| 2026-04-29 19:02 | 34.81118 | -11.73520 | 37991 ft | 462 kts | 292° |
| 2026-04-29 19:03 | 34.83457 | -11.79370 | 37998 ft | 462 kts | 292° |
| 2026-04-29 19:03 | 34.86263 | -11.86402 | 37991 ft | 462 kts | 292° |
| 2026-04-29 19:04 | 34.89070 | -11.93449 | 37986 ft | 462 kts | 292° |
| 2026-04-29 19:04 | 34.91870 | -12.00494 | 37994 ft | 462 kts | 292° |
| 2026-04-29 19:05 | 34.94663 | -12.07537 | 37990 ft | 462 kts | 292° |
| 2026-04-29 19:05 | 34.97456 | -12.14598 | 37987 ft | 463 kts | 292° |
| 2026-04-29 19:06 | 35.00252 | -12.21678 | 37993 ft | 463 kts | 292° |
| 2026-04-29 19:07 | 35.04436 | -12.32302 | 37987 ft | 463 kts | 292° |
| 2026-04-29 19:07 | 35.07221 | -12.39395 | 37994 ft | 463 kts | 292° |
| 2026-04-29 19:08 | 35.10005 | -12.46498 | 37993 ft | 465 kts | 291° |
| 2026-04-29 19:08 | 35.12789 | -12.53619 | 37987 ft | 464 kts | 291° |
| 2026-04-29 19:09 | 35.15568 | -12.60740 | 37988 ft | 464 kts | 291° |
| 2026-04-29 19:09 | 35.18338 | -12.67854 | 37987 ft | 464 kts | 291° |
| 2026-04-29 19:10 | 35.21109 | -12.74988 | 37987 ft | 464 kts | 291° |
| 2026-04-29 19:10 | 35.23875 | -12.82124 | 37992 ft | 465 kts | 291° |
| 2026-04-29 19:11 | 35.26643 | -12.89281 | 37981 ft | 466 kts | 291° |
| 2026-04-29 19:11 | 35.29409 | -12.96448 | 37982 ft | 466 kts | 291° |
| 2026-04-29 19:12 | 35.32172 | -13.03623 | 37984 ft | 466 kts | 291° |
| 2026-04-29 19:12 | 35.34913 | -13.10755 | 37984 ft | 466 kts | 291° |
| 2026-04-29 19:13 | 35.37666 | -13.17938 | 37986 ft | 467 kts | 291° |
| 2026-04-29 19:13 | 35.40424 | -13.25149 | 37986 ft | 468 kts | 291° |
| 2026-04-29 19:14 | 35.43180 | -13.32370 | 37985 ft | 468 kts | 291° |
| 2026-04-29 19:14 | 35.45935 | -13.39604 | 37986 ft | 468 kts | 291° |
| 2026-04-29 19:15 | 35.48684 | -13.46837 | 37991 ft | 468 kts | 291° |
| 2026-04-29 19:15 | 35.51424 | -13.54066 | 37985 ft | 468 kts | 291° |
| 2026-04-29 19:16 | 35.54164 | -13.61310 | 37984 ft | 468 kts | 291° |
| 2026-04-29 19:16 | 35.56900 | -13.68561 | 37984 ft | 468 kts | 291° |
| 2026-04-29 19:17 | 35.59633 | -13.75820 | 37983 ft | 468 kts | 291° |
| 2026-04-29 19:17 | 35.62361 | -13.83081 | 37981 ft | 468 kts | 291° |
| 2026-04-29 19:18 | 35.65086 | -13.90353 | 37980 ft | 469 kts | 291° |
| 2026-04-29 19:18 | 35.67798 | -13.97606 | 37978 ft | 470 kts | 291° |
| 2026-04-29 19:19 | 35.70542 | -14.04959 | 37984 ft | 469 kts | 290° |
| 2026-04-29 19:19 | 35.73258 | -14.12252 | 37983 ft | 469 kts | 290° |
| 2026-04-29 19:20 | 35.75950 | -14.19501 | 37982 ft | 469 kts | 290° |
| 2026-04-29 19:20 | 35.78657 | -14.26810 | 37984 ft | 470 kts | 290° |
| 2026-04-29 19:21 | 35.81367 | -14.34141 | 37977 ft | 471 kts | 290° |
| 2026-04-29 19:21 | 35.84075 | -14.41484 | 37977 ft | 471 kts | 290° |
| 2026-04-29 19:22 | 35.86777 | -14.48827 | 37986 ft | 470 kts | 290° |
| 2026-04-29 19:22 | 35.89473 | -14.56167 | 37977 ft | 469 kts | 290° |
| 2026-04-29 19:23 | 35.92161 | -14.63508 | 37977 ft | 470 kts | 290° |
| 2026-04-29 19:23 | 35.94850 | -14.70869 | 37974 ft | 471 kts | 290° |
| 2026-04-29 19:24 | 35.97535 | -14.78235 | 37974 ft | 471 kts | 290° |
| 2026-04-29 19:24 | 36.00217 | -14.85611 | 37977 ft | 471 kts | 290° |
| 2026-04-29 19:25 | 36.02896 | -14.92995 | 37973 ft | 471 kts | 290° |
| 2026-04-29 19:25 | 36.05571 | -15.00387 | 37972 ft | 472 kts | 290° |
| 2026-04-29 19:26 | 36.08244 | -15.07790 | 37973 ft | 471 kts | 290° |
| 2026-04-29 19:26 | 36.10911 | -15.15192 | 37971 ft | 471 kts | 290° |
| 2026-04-29 19:27 | 36.13570 | -15.22592 | 37971 ft | 471 kts | 290° |
| 2026-04-29 19:27 | 36.16227 | -15.30003 | 37969 ft | 471 kts | 290° |
| 2026-04-29 19:28 | 36.18973 | -15.37375 | 37971 ft | 474 kts | 295° |
| 2026-04-29 19:28 | 36.22750 | -15.44127 | 37982 ft | 479 kts | 303° |
| 2026-04-29 19:29 | 36.26898 | -15.50586 | 37969 ft | 479 kts | 305° |
| 2026-04-29 19:29 | 36.31100 | -15.56994 | 37969 ft | 479 kts | 305° |
| 2026-04-29 19:30 | 36.35287 | -15.63414 | 37966 ft | 479 kts | 304° |
| 2026-04-29 19:30 | 36.39465 | -15.69868 | 37970 ft | 480 kts | 304° |
| 2026-04-29 19:31 | 36.43611 | -15.76297 | 37976 ft | 480 kts | 304° |
| 2026-04-29 19:31 | 36.47779 | -15.82771 | 37963 ft | 480 kts | 304° |
| 2026-04-29 19:32 | 36.51938 | -15.89243 | 37963 ft | 479 kts | 304° |
| 2026-04-29 19:32 | 36.56094 | -15.95723 | 37957 ft | 479 kts | 304° |
| 2026-04-29 19:33 | 36.60250 | -16.02215 | 37965 ft | 480 kts | 304° |
| 2026-04-29 19:33 | 36.64410 | -16.08726 | 37962 ft | 480 kts | 304° |
| 2026-04-29 19:34 | 36.68565 | -16.15241 | 37960 ft | 480 kts | 304° |
| 2026-04-29 19:34 | 36.72716 | -16.21762 | 37961 ft | 480 kts | 304° |
| 2026-04-29 19:35 | 36.76859 | -16.28285 | 37958 ft | 480 kts | 304° |
| 2026-04-29 19:35 | 36.81001 | -16.34817 | 37958 ft | 480 kts | 304° |
| 2026-04-29 19:36 | 36.85138 | -16.41356 | 37959 ft | 481 kts | 304° |
| 2026-04-29 19:36 | 36.89282 | -16.47917 | 37963 ft | 481 kts | 304° |
| 2026-04-29 19:37 | 36.93419 | -16.54480 | 37952 ft | 481 kts | 304° |
| 2026-04-29 19:37 | 36.97551 | -16.61048 | 37950 ft | 481 kts | 304° |
| 2026-04-29 19:38 | 37.01682 | -16.67628 | 37956 ft | 481 kts | 304° |
| 2026-04-29 19:38 | 37.05807 | -16.74211 | 37956 ft | 481 kts | 304° |
| 2026-04-29 19:39 | 37.09940 | -16.80820 | 37952 ft | 482 kts | 304° |
| 2026-04-29 19:39 | 37.14068 | -16.87435 | 37952 ft | 482 kts | 304° |
| 2026-04-29 19:40 | 37.18195 | -16.94059 | 37950 ft | 482 kts | 304° |
| 2026-04-29 19:40 | 37.22319 | -17.00693 | 37950 ft | 482 kts | 303° |
| 2026-04-29 19:41 | 37.26441 | -17.07336 | 37953 ft | 483 kts | 303° |
| 2026-04-29 19:41 | 37.30572 | -17.14008 | 37949 ft | 484 kts | 303° |
| 2026-04-29 19:42 | 37.34700 | -17.20687 | 37947 ft | 484 kts | 303° |
| 2026-04-29 19:42 | 37.38830 | -17.27384 | 37949 ft | 484 kts | 303° |
| 2026-04-29 19:43 | 37.42945 | -17.34068 | 37947 ft | 483 kts | 303° |
| 2026-04-29 19:43 | 37.47057 | -17.40762 | 37958 ft | 483 kts | 303° |
| 2026-04-29 19:44 | 37.51172 | -17.47477 | 37942 ft | 485 kts | 303° |
| 2026-04-29 19:44 | 37.55269 | -17.54174 | 37940 ft | 486 kts | 303° |
| 2026-04-29 19:45 | 37.59382 | -17.60912 | 37943 ft | 485 kts | 303° |
| 2026-04-29 19:45 | 37.63494 | -17.67659 | 37944 ft | 485 kts | 303° |
| 2026-04-29 19:46 | 37.67596 | -17.74405 | 37941 ft | 485 kts | 303° |
| 2026-04-29 19:46 | 37.71703 | -17.81173 | 37941 ft | 486 kts | 303° |
| 2026-04-29 19:47 | 37.75813 | -17.87962 | 37941 ft | 486 kts | 303° |
| 2026-04-29 19:47 | 37.79915 | -17.94749 | 37941 ft | 485 kts | 303° |
| 2026-04-29 19:48 | 37.84013 | -18.01543 | 37936 ft | 485 kts | 303° |
| 2026-04-29 19:48 | 37.88102 | -18.08337 | 37936 ft | 485 kts | 303° |
| 2026-04-29 19:49 | 37.92192 | -18.15148 | 37936 ft | 487 kts | 303° |
| 2026-04-29 19:49 | 37.95597 | -18.20831 | 37933 ft | 487 kts | 303° |
| 2026-04-29 19:50 | 37.99689 | -18.27669 | 37936 ft | 487 kts | 303° |
| 2026-04-29 19:50 | 38.03775 | -18.34512 | 37932 ft | 487 kts | 303° |
| 2026-04-29 19:51 | 38.07857 | -18.41363 | 37931 ft | 487 kts | 303° |
| 2026-04-29 19:51 | 38.11932 | -18.48218 | 37929 ft | 487 kts | 303° |
| 2026-04-29 19:52 | 38.16020 | -18.55109 | 37932 ft | 488 kts | 303° |
| 2026-04-29 19:52 | 38.20097 | -18.61994 | 37932 ft | 488 kts | 303° |
| 2026-04-29 19:53 | 38.24180 | -18.68903 | 37931 ft | 488 kts | 303° |
| 2026-04-29 19:53 | 38.28250 | -18.75807 | 37939 ft | 488 kts | 303° |
| 2026-04-29 19:54 | 38.34344 | -18.86171 | 37924 ft | 487 kts | 303° |
| 2026-04-29 19:54 | 38.38396 | -18.93079 | 37925 ft | 487 kts | 303° |
| 2026-04-29 19:55 | 38.42446 | -19.00001 | 37918 ft | 487 kts | 303° |
| 2026-04-29 19:55 | 38.46467 | -19.06887 | 37924 ft | 487 kts | 303° |
| 2026-04-29 19:56 | 38.50529 | -19.13856 | 37930 ft | 486 kts | 303° |
| 2026-04-29 19:56 | 38.54572 | -19.20812 | 37919 ft | 489 kts | 303° |
| 2026-04-29 19:57 | 38.57943 | -19.26621 | 37916 ft | 490 kts | 303° |
| 2026-04-29 19:57 | 38.62679 | -19.34797 | 37920 ft | 490 kts | 303° |
| 2026-04-29 19:58 | 38.66695 | -19.41748 | 37916 ft | 489 kts | 303° |
| 2026-04-29 19:58 | 38.70735 | -19.48755 | 37924 ft | 489 kts | 303° |
| 2026-04-29 19:59 | 38.74780 | -19.55790 | 37911 ft | 492 kts | 303° |
| 2026-04-29 19:59 | 38.78835 | -19.62853 | 37911 ft | 492 kts | 303° |
| 2026-04-29 20:00 | 38.82890 | -19.69932 | 37913 ft | 491 kts | 303° |
| 2026-04-29 20:00 | 38.86928 | -19.76996 | 37914 ft | 491 kts | 302° |
| 2026-04-29 20:01 | 38.90959 | -19.84066 | 37913 ft | 493 kts | 302° |
| 2026-04-29 20:01 | 38.95023 | -19.91212 | 37910 ft | 496 kts | 302° |
| 2026-04-29 20:02 | 38.99051 | -19.98395 | 37906 ft | 494 kts | 299° |
| 2026-04-29 20:02 | 39.01750 | -20.04876 | 37909 ft | 490 kts | 292° |
| 2026-04-29 20:03 | 39.05097 | -20.14101 | 37933 ft | 489 kts | 290° |
| 2026-04-29 20:03 | 39.07908 | -20.22083 | 37902 ft | 491 kts | 290° |
| 2026-04-29 20:04 | 39.10728 | -20.30088 | 37897 ft | 491 kts | 290° |
| 2026-04-29 20:04 | 39.13563 | -20.38116 | 37898 ft | 492 kts | 290° |
| 2026-04-29 20:05 | 39.16393 | -20.46131 | 37894 ft | 492 kts | 290° |
| 2026-04-29 20:05 | 39.19226 | -20.54174 | 37894 ft | 493 kts | 290° |
| 2026-04-29 20:06 | 39.22051 | -20.62227 | 37888 ft | 493 kts | 290° |
| 2026-04-29 20:06 | 39.24873 | -20.70293 | 37889 ft | 493 kts | 290° |
| 2026-04-29 20:07 | 39.27693 | -20.78372 | 37883 ft | 493 kts | 290° |
| 2026-04-29 20:07 | 39.30505 | -20.86449 | 37880 ft | 494 kts | 290° |
| 2026-04-29 20:08 | 39.32841 | -20.93181 | 37876 ft | 495 kts | 289° |
| 2026-04-29 20:08 | 39.36126 | -21.02671 | 37876 ft | 495 kts | 289° |
| 2026-04-29 20:09 | 39.38930 | -21.10796 | 37879 ft | 495 kts | 289° |
| 2026-04-29 20:09 | 39.41730 | -21.18934 | 37875 ft | 496 kts | 289° |
| 2026-04-29 20:10 | 39.44531 | -21.27099 | 37870 ft | 497 kts | 289° |
| 2026-04-29 20:10 | 39.47330 | -21.35276 | 37870 ft | 497 kts | 289° |
| 2026-04-29 20:11 | 39.50120 | -21.43453 | 37866 ft | 497 kts | 289° |
| 2026-04-29 20:11 | 39.52908 | -21.51651 | 37871 ft | 498 kts | 289° |
| 2026-04-29 20:12 | 39.55699 | -21.59878 | 37867 ft | 499 kts | 289° |
| 2026-04-29 20:12 | 39.58487 | -21.68118 | 37856 ft | 500 kts | 289° |
| 2026-04-29 20:13 | 39.60803 | -21.74981 | 37860 ft | 500 kts | 289° |
| 2026-04-29 20:13 | 39.64033 | -21.84584 | 37861 ft | 500 kts | 290° |
| 2026-04-29 20:14 | 39.66826 | -21.92915 | 37859 ft | 501 kts | 290° |
| 2026-04-29 20:14 | 39.69578 | -22.01143 | 37854 ft | 501 kts | 290° |
| 2026-04-29 20:15 | 39.72350 | -22.09457 | 37850 ft | 501 kts | 289° |
| 2026-04-29 20:15 | 39.75112 | -22.17765 | 37850 ft | 501 kts | 289° |
| 2026-04-29 20:16 | 39.77867 | -22.26079 | 37841 ft | 501 kts | 289° |
| 2026-04-29 20:16 | 39.80614 | -22.34391 | 37835 ft | 501 kts | 289° |
| 2026-04-29 20:17 | 39.83362 | -22.42732 | 37839 ft | 501 kts | 289° |
| 2026-04-29 20:17 | 39.86096 | -22.51060 | 37822 ft | 501 kts | 290° |
| 2026-04-29 20:18 | 39.88832 | -22.59413 | 37832 ft | 502 kts | 290° |
| 2026-04-29 20:18 | 39.91564 | -22.67777 | 37820 ft | 502 kts | 290° |
| 2026-04-29 20:19 | 39.94292 | -22.76154 | 37814 ft | 502 kts | 289° |
| 2026-04-29 20:19 | 39.96994 | -22.84476 | 37819 ft | 502 kts | 290° |
| 2026-04-29 20:20 | 39.99727 | -22.92922 | 37814 ft | 502 kts | 290° |
| 2026-04-29 20:20 | 40.02418 | -23.01264 | 37817 ft | 502 kts | 289° |
| 2026-04-29 20:21 | 40.05124 | -23.09677 | 37809 ft | 503 kts | 289° |
| 2026-04-29 20:21 | 40.07820 | -23.18086 | 37809 ft | 503 kts | 290° |
| 2026-04-29 20:22 | 40.10517 | -23.26525 | 37801 ft | 503 kts | 289° |
| 2026-04-29 20:22 | 40.13202 | -23.34950 | 37807 ft | 503 kts | 289° |
| 2026-04-29 20:23 | 40.15886 | -23.43396 | 37820 ft | 503 kts | 290° |
| 2026-04-29 20:23 | 40.18563 | -23.51846 | 37793 ft | 504 kts | 289° |
| 2026-04-29 20:24 | 40.21237 | -23.60318 | 37793 ft | 504 kts | 289° |
| 2026-04-29 20:24 | 40.23908 | -23.68802 | 37793 ft | 504 kts | 289° |
| 2026-04-29 20:25 | 40.26573 | -23.77294 | 37799 ft | 504 kts | 290° |
| 2026-04-29 20:25 | 40.29235 | -23.85803 | 37795 ft | 505 kts | 289° |
| 2026-04-29 20:26 | 40.31891 | -23.94320 | 37794 ft | 505 kts | 289° |
| 2026-04-29 20:26 | 40.34542 | -24.02844 | 37790 ft | 505 kts | 289° |
| 2026-04-29 20:27 | 40.36739 | -24.09933 | 37794 ft | 505 kts | 290° |
| 2026-04-29 20:27 | 40.39818 | -24.19895 | 37785 ft | 504 kts | 290° |
| 2026-04-29 20:28 | 40.42449 | -24.28438 | 37782 ft | 505 kts | 289° |
| 2026-04-29 20:28 | 40.45074 | -24.36987 | 37782 ft | 505 kts | 289° |
| 2026-04-29 20:29 | 40.47694 | -24.45550 | 37783 ft | 505 kts | 290° |
| 2026-04-29 20:29 | 40.50303 | -24.54103 | 37779 ft | 505 kts | 290° |
| 2026-04-29 20:30 | 40.52908 | -24.62670 | 37777 ft | 505 kts | 290° |
| 2026-04-29 20:30 | 40.55506 | -24.71245 | 37792 ft | 506 kts | 290° |
| 2026-04-29 20:31 | 40.58101 | -24.79836 | 37771 ft | 505 kts | 290° |
| 2026-04-29 20:31 | 40.60670 | -24.88365 | 37771 ft | 504 kts | 290° |
| 2026-04-29 20:32 | 40.63263 | -24.97004 | 37768 ft | 504 kts | 290° |
| 2026-04-29 20:32 | 40.65399 | -25.04142 | 37774 ft | 505 kts | 290° |
| 2026-04-29 20:33 | 40.68401 | -25.14207 | 37763 ft | 504 kts | 290° |
| 2026-04-29 20:33 | 40.70957 | -25.22806 | 37763 ft | 504 kts | 290° |
| 2026-04-29 20:34 | 40.73493 | -25.31364 | 37763 ft | 504 kts | 290° |
| 2026-04-29 20:34 | 40.76036 | -25.39977 | 37760 ft | 505 kts | 290° |
| 2026-04-29 20:35 | 40.78580 | -25.48619 | 37760 ft | 506 kts | 290° |
| 2026-04-29 20:35 | 40.80707 | -25.55869 | 37760 ft | 506 kts | 290° |
| 2026-04-29 20:36 | 40.83224 | -25.64469 | 37775 ft | 506 kts | 290° |
| 2026-04-29 20:36 | 40.85748 | -25.73126 | 37754 ft | 505 kts | 290° |
| 2026-04-29 20:37 | 40.88266 | -25.81792 | 37761 ft | 506 kts | 290° |
| 2026-04-29 20:37 | 40.90800 | -25.90538 | 37763 ft | 506 kts | 290° |
| 2026-04-29 20:38 | 40.93294 | -25.99178 | 37758 ft | 506 kts | 290° |
| 2026-04-29 20:38 | 40.95793 | -26.07863 | 37767 ft | 506 kts | 290° |
| 2026-04-29 20:39 | 40.98290 | -26.16575 | 37766 ft | 507 kts | 290° |
| 2026-04-29 20:39 | 41.00787 | -26.25311 | 37768 ft | 507 kts | 290° |
| 2026-04-29 20:40 | 41.03271 | -26.34035 | 37770 ft | 506 kts | 290° |
| 2026-04-29 20:40 | 41.05750 | -26.42768 | 37768 ft | 506 kts | 290° |
| 2026-04-29 20:41 | 41.08221 | -26.51504 | 37770 ft | 507 kts | 289° |
| 2026-04-29 20:41 | 41.10688 | -26.60256 | 37767 ft | 507 kts | 290° |
| 2026-04-29 20:42 | 41.13145 | -26.69002 | 37776 ft | 506 kts | 290° |
| 2026-04-29 20:42 | 41.15608 | -26.77799 | 37770 ft | 506 kts | 290° |
| 2026-04-29 20:43 | 41.18034 | -26.86494 | 37775 ft | 506 kts | 289° |
| 2026-04-29 20:43 | 41.20469 | -26.95258 | 37771 ft | 505 kts | 290° |
| 2026-04-29 20:44 | 41.22894 | -27.04008 | 37769 ft | 505 kts | 290° |
| 2026-04-29 20:44 | 41.25314 | -27.12773 | 37771 ft | 505 kts | 290° |
| 2026-04-29 20:45 | 41.27725 | -27.21537 | 37764 ft | 505 kts | 290° |
| 2026-04-29 20:45 | 41.30130 | -27.30308 | 37766 ft | 505 kts | 290° |
| 2026-04-29 20:46 | 41.32527 | -27.39079 | 37767 ft | 505 kts | 290° |
| 2026-04-29 20:46 | 41.34917 | -27.47858 | 37777 ft | 505 kts | 290° |
| 2026-04-29 20:47 | 41.37301 | -27.56646 | 37767 ft | 504 kts | 290° |
| 2026-04-29 20:47 | 41.39676 | -27.65432 | 37767 ft | 504 kts | 290° |
| 2026-04-29 20:48 | 41.42045 | -27.74225 | 37767 ft | 504 kts | 290° |
| 2026-04-29 20:48 | 41.44408 | -27.83028 | 37771 ft | 504 kts | 290° |
| 2026-04-29 20:49 | 41.46762 | -27.91832 | 37759 ft | 504 kts | 290° |
| 2026-04-29 20:49 | 41.49110 | -28.00641 | 37767 ft | 505 kts | 290° |
| 2026-04-29 20:50 | 41.51453 | -28.09461 | 37768 ft | 505 kts | 290° |
| 2026-04-29 20:50 | 41.53789 | -28.18290 | 37769 ft | 505 kts | 290° |
| 2026-04-29 20:51 | 41.56122 | -28.27140 | 37767 ft | 505 kts | 290° |
| 2026-04-29 20:51 | 41.58447 | -28.35991 | 37769 ft | 505 kts | 290° |
| 2026-04-29 20:52 | 41.60766 | -28.44850 | 37769 ft | 505 kts | 290° |
| 2026-04-29 20:52 | 41.63079 | -28.53720 | 37775 ft | 505 kts | 290° |
| 2026-04-29 20:53 | 41.65384 | -28.62592 | 37771 ft | 505 kts | 290° |
| 2026-04-29 20:53 | 41.67685 | -28.71479 | 37770 ft | 506 kts | 289° |
| 2026-04-29 20:54 | 41.71124 | -28.84827 | 37774 ft | 506 kts | 289° |
| 2026-04-29 20:55 | 41.73408 | -28.93732 | 37772 ft | 506 kts | 289° |
| 2026-04-29 20:55 | 41.75669 | -29.02581 | 37769 ft | 506 kts | 289° |
| 2026-04-29 20:56 | 41.77942 | -29.11506 | 37778 ft | 507 kts | 289° |
| 2026-04-29 20:56 | 41.80209 | -29.20448 | 37773 ft | 507 kts | 289° |
| 2026-04-29 20:57 | 41.82467 | -29.29384 | 37779 ft | 507 kts | 289° |
| 2026-04-29 20:57 | 41.84724 | -29.38350 | 37768 ft | 507 kts | 289° |
| 2026-04-29 20:58 | 41.86971 | -29.47311 | 37773 ft | 507 kts | 289° |
| 2026-04-29 20:58 | 41.89213 | -29.56284 | 37780 ft | 507 kts | 289° |
| 2026-04-29 20:59 | 41.91450 | -29.65274 | 37779 ft | 507 kts | 289° |
| 2026-04-29 20:59 | 41.93679 | -29.74268 | 37774 ft | 507 kts | 289° |
| 2026-04-29 21:00 | 41.95899 | -29.83255 | 37784 ft | 508 kts | 289° |
| 2026-04-29 21:00 | 41.98111 | -29.92248 | 37785 ft | 506 kts | 288° |
| 2026-04-29 21:01 | 42.00129 | -30.01316 | 37789 ft | 506 kts | 283° |
| 2026-04-29 21:01 | 42.01574 | -30.10574 | 37778 ft | 506 kts | 281° |
| 2026-04-29 21:02 | 42.02909 | -30.19867 | 37780 ft | 506 kts | 281° |
| 2026-04-29 21:02 | 42.04224 | -30.29166 | 37779 ft | 506 kts | 281° |
| 2026-04-29 21:03 | 42.05539 | -30.38454 | 37779 ft | 505 kts | 281° |
| 2026-04-29 21:03 | 42.06849 | -30.47707 | 37783 ft | 503 kts | 281° |
| 2026-04-29 21:04 | 42.08150 | -30.56948 | 37778 ft | 502 kts | 281° |
| 2026-04-29 21:04 | 42.09443 | -30.66186 | 37777 ft | 502 kts | 281° |
| 2026-04-29 21:05 | 42.10727 | -30.75423 | 37779 ft | 502 kts | 280° |
| 2026-04-29 21:05 | 42.12005 | -30.84673 | 37780 ft | 502 kts | 281° |
| 2026-04-29 21:06 | 42.13271 | -30.93894 | 37775 ft | 500 kts | 280° |
| 2026-04-29 21:06 | 42.14528 | -31.03102 | 37777 ft | 500 kts | 280° |
| 2026-04-29 21:07 | 42.15778 | -31.12323 | 37778 ft | 501 kts | 280° |
| 2026-04-29 21:07 | 42.16813 | -31.19996 | 37776 ft | 501 kts | 280° |
| 2026-04-29 21:08 | 42.18261 | -31.30809 | 37782 ft | 501 kts | 280° |
| 2026-04-29 21:08 | 42.19491 | -31.40052 | 37776 ft | 501 kts | 280° |
| 2026-04-29 21:09 | 42.20714 | -31.49304 | 37781 ft | 501 kts | 280° |
| 2026-04-29 21:09 | 42.21929 | -31.58558 | 37779 ft | 501 kts | 280° |
| 2026-04-29 21:10 | 42.23138 | -31.67826 | 37779 ft | 501 kts | 280° |
| 2026-04-29 21:10 | 42.24338 | -31.77083 | 37776 ft | 501 kts | 280° |
| 2026-04-29 21:11 | 42.25529 | -31.86332 | 37780 ft | 499 kts | 280° |
| 2026-04-29 21:11 | 42.26711 | -31.95570 | 37784 ft | 499 kts | 279° |
| 2026-04-29 21:12 | 42.27883 | -32.04788 | 37785 ft | 498 kts | 279° |
| 2026-04-29 21:12 | 42.29047 | -32.14010 | 37783 ft | 499 kts | 279° |
| 2026-04-29 21:13 | 42.30205 | -32.23249 | 37783 ft | 499 kts | 279° |
| 2026-04-29 21:13 | 42.31346 | -32.32409 | 37782 ft | 497 kts | 279° |
| 2026-04-29 21:14 | 42.32482 | -32.41594 | 37790 ft | 495 kts | 279° |
| 2026-04-29 21:14 | 42.33611 | -32.50781 | 37788 ft | 496 kts | 279° |
| 2026-04-29 21:15 | 42.34733 | -32.59974 | 37789 ft | 496 kts | 279° |
| 2026-04-29 21:15 | 42.35847 | -32.69177 | 37792 ft | 496 kts | 279° |
| 2026-04-29 21:16 | 42.36955 | -32.78391 | 37798 ft | 496 kts | 279° |
| 2026-04-29 21:16 | 42.38054 | -32.87586 | 37799 ft | 495 kts | 279° |
| 2026-04-29 21:17 | 42.39144 | -32.96769 | 37802 ft | 495 kts | 279° |
| 2026-04-29 21:17 | 42.40227 | -33.05968 | 37807 ft | 495 kts | 279° |
| 2026-04-29 21:18 | 42.41303 | -33.15168 | 37808 ft | 495 kts | 279° |
| 2026-04-29 21:18 | 42.42192 | -33.22817 | 37810 ft | 495 kts | 279° |
| 2026-04-29 21:19 | 42.43254 | -33.32019 | 37814 ft | 493 kts | 279° |
| 2026-04-29 21:19 | 42.44304 | -33.41183 | 37816 ft | 493 kts | 278° |
| 2026-04-29 21:20 | 42.45347 | -33.50356 | 37812 ft | 493 kts | 278° |
| 2026-04-29 21:20 | 42.46385 | -33.59546 | 37815 ft | 493 kts | 278° |
| 2026-04-29 21:21 | 42.47415 | -33.68736 | 37828 ft | 494 kts | 278° |
| 2026-04-29 21:21 | 42.48437 | -33.77927 | 37829 ft | 493 kts | 278° |
| 2026-04-29 21:22 | 42.49453 | -33.87124 | 37837 ft | 494 kts | 278° |
| 2026-04-29 21:22 | 42.50462 | -33.96335 | 37837 ft | 494 kts | 278° |
| 2026-04-29 21:23 | 42.51464 | -34.05546 | 37843 ft | 494 kts | 278° |
| 2026-04-29 21:23 | 42.52458 | -34.14761 | 37843 ft | 494 kts | 278° |
| 2026-04-29 21:24 | 42.53446 | -34.23987 | 37850 ft | 494 kts | 278° |
| 2026-04-29 21:24 | 42.54422 | -34.33179 | 37855 ft | 491 kts | 278° |
| 2026-04-29 21:25 | 42.55389 | -34.42362 | 37862 ft | 492 kts | 278° |
| 2026-04-29 21:25 | 42.56349 | -34.51545 | 37867 ft | 492 kts | 278° |
| 2026-04-29 21:26 | 42.57302 | -34.60739 | 37875 ft | 492 kts | 278° |
| 2026-04-29 21:26 | 42.58250 | -34.69941 | 37881 ft | 492 kts | 278° |
| 2026-04-29 21:27 | 42.59187 | -34.79128 | 37877 ft | 491 kts | 278° |
| 2026-04-29 21:27 | 42.60115 | -34.88293 | 37895 ft | 490 kts | 278° |
| 2026-04-29 21:28 | 42.61037 | -34.97468 | 37892 ft | 490 kts | 278° |
| 2026-04-29 21:28 | 42.61951 | -35.06642 | 37905 ft | 490 kts | 278° |
| 2026-04-29 21:29 | 42.62857 | -35.15819 | 37903 ft | 490 kts | 278° |
| 2026-04-29 21:29 | 42.63756 | -35.24996 | 37920 ft | 490 kts | 278° |
| 2026-04-29 21:30 | 42.64644 | -35.34147 | 37917 ft | 487 kts | 278° |
| 2026-04-29 21:30 | 42.65524 | -35.43281 | 37928 ft | 488 kts | 278° |
| 2026-04-29 21:31 | 42.66395 | -35.52419 | 37933 ft | 488 kts | 278° |
| 2026-04-29 21:31 | 42.67259 | -35.61543 | 37938 ft | 487 kts | 278° |
| 2026-04-29 21:32 | 42.68117 | -35.70684 | 37945 ft | 488 kts | 277° |
| 2026-04-29 21:32 | 42.68965 | -35.79808 | 37943 ft | 484 kts | 278° |
| 2026-04-29 21:33 | 42.69799 | -35.88841 | 37961 ft | 481 kts | 278° |
| 2026-04-29 21:33 | 42.70619 | -35.97818 | 37965 ft | 481 kts | 278° |
| 2026-04-29 21:34 | 42.71435 | -36.06835 | 37969 ft | 480 kts | 278° |
| 2026-04-29 21:34 | 42.72244 | -36.15862 | 37978 ft | 482 kts | 278° |
| 2026-04-29 21:35 | 42.73048 | -36.24906 | 37973 ft | 480 kts | 278° |
| 2026-04-29 21:35 | 42.73840 | -36.33889 | 37989 ft | 477 kts | 278° |
| 2026-04-29 21:36 | 42.74623 | -36.42851 | 37991 ft | 477 kts | 279° |
| 2026-04-29 21:36 | 42.75396 | -36.51796 | 37995 ft | 475 kts | 278° |
| 2026-04-29 21:37 | 42.76167 | -36.60751 | 37997 ft | 479 kts | 278° |
| 2026-04-29 21:37 | 42.76930 | -36.69733 | 38003 ft | 477 kts | 278° |
| 2026-04-29 21:38 | 42.77685 | -36.78704 | 38005 ft | 476 kts | 278° |
| 2026-04-29 21:38 | 42.78432 | -36.87666 | 38009 ft | 476 kts | 278° |
| 2026-04-29 21:39 | 42.79167 | -36.96589 | 38014 ft | 472 kts | 278° |
| 2026-04-29 21:39 | 42.79896 | -37.05493 | 38021 ft | 475 kts | 278° |
| 2026-04-29 21:40 | 42.80620 | -37.14444 | 38031 ft | 475 kts | 279° |
| 2026-04-29 21:40 | 42.81332 | -37.23351 | 38028 ft | 474 kts | 278° |
| 2026-04-29 21:41 | 42.82046 | -37.32307 | 38027 ft | 476 kts | 278° |
| 2026-04-29 21:41 | 42.82747 | -37.41234 | 38032 ft | 473 kts | 278° |
| 2026-04-29 21:42 | 42.83441 | -37.50142 | 38048 ft | 474 kts | 278° |
| 2026-04-29 21:42 | 42.84128 | -37.59099 | 38048 ft | 474 kts | 279° |
| 2026-04-29 21:43 | 42.84805 | -37.67996 | 38056 ft | 472 kts | 278° |
| 2026-04-29 21:43 | 42.85482 | -37.76930 | 38045 ft | 476 kts | 278° |
| 2026-04-29 21:44 | 42.86145 | -37.85870 | 38050 ft | 471 kts | 278° |
| 2026-04-29 21:44 | 42.86802 | -37.94757 | 38064 ft | 473 kts | 278° |
| 2026-04-29 21:45 | 42.87450 | -38.03638 | 38058 ft | 474 kts | 278° |
| 2026-04-29 21:45 | 42.88096 | -38.12602 | 38072 ft | 472 kts | 278° |
| 2026-04-29 21:46 | 42.88735 | -38.21532 | 38073 ft | 475 kts | 278° |
| 2026-04-29 21:46 | 42.89364 | -38.30439 | 38080 ft | 473 kts | 278° |
| 2026-04-29 21:47 | 42.89989 | -38.39373 | 38080 ft | 473 kts | 278° |
| 2026-04-29 21:47 | 42.90607 | -38.48312 | 38086 ft | 473 kts | 279° |
| 2026-04-29 21:48 | 42.91215 | -38.57226 | 38086 ft | 472 kts | 278° |
| 2026-04-29 21:48 | 42.91821 | -38.66177 | 38090 ft | 474 kts | 278° |
| 2026-04-29 21:49 | 42.92414 | -38.75116 | 38091 ft | 473 kts | 278° |
| 2026-04-29 21:49 | 42.93003 | -38.84062 | 38105 ft | 474 kts | 278° |
| 2026-04-29 21:50 | 42.93588 | -38.93025 | 38101 ft | 474 kts | 278° |
| 2026-04-29 21:50 | 42.94164 | -39.01974 | 38101 ft | 473 kts | 278° |
| 2026-04-29 21:51 | 42.94733 | -39.10940 | 38108 ft | 474 kts | 278° |
| 2026-04-29 21:51 | 42.95572 | -39.24364 | 38121 ft | 473 kts | 277° |
| 2026-04-29 21:52 | 42.96123 | -39.33325 | 38124 ft | 473 kts | 278° |
| 2026-04-29 21:52 | 42.96662 | -39.42202 | 38132 ft | 471 kts | 278° |
| 2026-04-29 21:53 | 42.97198 | -39.51127 | 38120 ft | 472 kts | 278° |
| 2026-04-29 21:53 | 42.97726 | -39.60059 | 38122 ft | 471 kts | 278° |
| 2026-04-29 21:54 | 42.98248 | -39.68977 | 38144 ft | 472 kts | 277° |
| 2026-04-29 21:54 | 42.98763 | -39.77916 | 38140 ft | 472 kts | 278° |
| 2026-04-29 21:55 | 42.99272 | -39.86842 | 38143 ft | 470 kts | 277° |
| 2026-04-29 21:55 | 42.99770 | -39.95743 | 38148 ft | 470 kts | 277° |
| 2026-04-29 21:56 | 43.00678 | -40.04538 | 38149 ft | 467 kts | 283° |
| 2026-04-29 21:56 | 43.01901 | -40.13254 | 38146 ft | 467 kts | 283° |
| 2026-04-29 21:57 | 43.03163 | -40.21913 | 38148 ft | 467 kts | 284° |
| 2026-04-29 21:57 | 43.04434 | -40.30685 | 38157 ft | 467 kts | 283° |
| 2026-04-29 21:58 | 43.05679 | -40.39389 | 38148 ft | 467 kts | 283° |
| 2026-04-29 21:58 | 43.06914 | -40.48100 | 38164 ft | 466 kts | 283° |
| 2026-04-29 21:59 | 43.08139 | -40.56803 | 38167 ft | 466 kts | 283° |
| 2026-04-29 21:59 | 43.09349 | -40.65448 | 38167 ft | 466 kts | 283° |
| 2026-04-29 22:00 | 43.10564 | -40.74167 | 38172 ft | 467 kts | 283° |
| 2026-04-29 22:00 | 43.11772 | -40.82894 | 38172 ft | 466 kts | 283° |
| 2026-04-29 22:01 | 43.12973 | -40.91620 | 38179 ft | 466 kts | 283° |
| 2026-04-29 22:01 | 43.14168 | -41.00346 | 38164 ft | 466 kts | 283° |
| 2026-04-29 22:02 | 43.15356 | -41.09072 | 38185 ft | 466 kts | 283° |
| 2026-04-29 22:02 | 43.16536 | -41.17804 | 38182 ft | 466 kts | 282° |
| 2026-04-29 22:03 | 43.17708 | -41.26532 | 38184 ft | 466 kts | 282° |
| 2026-04-29 22:03 | 43.18875 | -41.35263 | 38186 ft | 467 kts | 282° |
| 2026-04-29 22:04 | 43.19841 | -41.42538 | 38186 ft | 467 kts | 282° |
| 2026-04-29 22:04 | 43.20998 | -41.51299 | 38191 ft | 467 kts | 282° |
| 2026-04-29 22:05 | 43.22150 | -41.60066 | 38192 ft | 467 kts | 282° |
| 2026-04-29 22:06 | 43.23863 | -41.73213 | 38198 ft | 466 kts | 282° |
| 2026-04-29 22:06 | 43.24993 | -41.81967 | 38201 ft | 466 kts | 282° |
| 2026-04-29 22:07 | 43.26121 | -41.90745 | 38209 ft | 468 kts | 282° |
| 2026-04-29 22:07 | 43.27244 | -41.99536 | 38207 ft | 468 kts | 282° |
| 2026-04-29 22:08 | 43.28358 | -42.08325 | 38210 ft | 467 kts | 282° |
| 2026-04-29 22:08 | 43.29465 | -42.17113 | 38212 ft | 467 kts | 282° |
| 2026-04-29 22:09 | 43.30569 | -42.25927 | 38199 ft | 469 kts | 281° |
| 2026-04-29 22:09 | 43.31665 | -42.34730 | 38215 ft | 467 kts | 281° |
| 2026-04-29 22:10 | 43.32750 | -42.43513 | 38216 ft | 467 kts | 281° |
| 2026-04-29 22:10 | 43.33831 | -42.52319 | 38221 ft | 467 kts | 281° |
| 2026-04-29 22:11 | 43.34897 | -42.61063 | 38219 ft | 467 kts | 282° |
| 2026-04-29 22:11 | 43.35972 | -42.69937 | 38225 ft | 469 kts | 281° |
| 2026-04-29 22:12 | 43.37038 | -42.78785 | 38225 ft | 470 kts | 281° |
| 2026-04-29 22:12 | 43.38096 | -42.87652 | 38212 ft | 469 kts | 281° |
| 2026-04-29 22:13 | 43.39145 | -42.96481 | 38225 ft | 467 kts | 281° |
| 2026-04-29 22:13 | 43.40177 | -43.05247 | 38232 ft | 469 kts | 281° |
| 2026-04-29 22:14 | 43.41211 | -43.14091 | 38229 ft | 469 kts | 281° |
| 2026-04-29 22:14 | 43.42241 | -43.22938 | 38234 ft | 468 kts | 281° |
| 2026-04-29 22:15 | 43.43265 | -43.31791 | 38237 ft | 469 kts | 281° |
| 2026-04-29 22:15 | 43.44280 | -43.40655 | 38239 ft | 469 kts | 281° |
| 2026-04-29 22:16 | 43.45287 | -43.49512 | 38238 ft | 469 kts | 281° |
| 2026-04-29 22:16 | 43.46294 | -43.58408 | 38237 ft | 471 kts | 280° |
| 2026-04-29 22:17 | 43.47291 | -43.67301 | 38240 ft | 469 kts | 280° |
| 2026-04-29 22:17 | 43.48279 | -43.76170 | 38243 ft | 469 kts | 280° |
| 2026-04-29 22:18 | 43.49264 | -43.85065 | 38246 ft | 471 kts | 280° |
| 2026-04-29 22:18 | 43.50240 | -43.93968 | 38243 ft | 470 kts | 280° |
| 2026-04-29 22:19 | 43.51210 | -44.02867 | 38243 ft | 470 kts | 280° |
| 2026-04-29 22:19 | 43.52176 | -44.11779 | 38248 ft | 471 kts | 280° |
| 2026-04-29 22:20 | 43.53133 | -44.20695 | 38243 ft | 470 kts | 279° |
| 2026-04-29 22:20 | 43.54079 | -44.29576 | 38240 ft | 468 kts | 279° |
| 2026-04-29 22:21 | 43.55021 | -44.38483 | 38247 ft | 471 kts | 279° |
| 2026-04-29 22:21 | 43.55956 | -44.47411 | 38247 ft | 470 kts | 279° |
| 2026-04-29 22:22 | 43.56884 | -44.56329 | 38253 ft | 470 kts | 279° |
| 2026-04-29 22:22 | 43.57807 | -44.65256 | 38255 ft | 471 kts | 279° |
| 2026-04-29 22:23 | 43.58716 | -44.74132 | 38253 ft | 470 kts | 279° |
| 2026-04-29 22:23 | 43.59625 | -44.83057 | 38254 ft | 470 kts | 279° |
| 2026-04-29 22:24 | 43.60529 | -44.92010 | 38256 ft | 471 kts | 279° |
| 2026-04-29 22:24 | 43.61424 | -45.00961 | 38252 ft | 470 kts | 279° |
| 2026-04-29 22:25 | 43.62311 | -45.09899 | 38256 ft | 471 kts | 279° |
| 2026-04-29 22:25 | 43.63195 | -45.18869 | 38254 ft | 472 kts | 279° |
| 2026-04-29 22:26 | 43.64069 | -45.27827 | 38256 ft | 470 kts | 278° |
| 2026-04-29 22:26 | 43.64936 | -45.36781 | 38256 ft | 471 kts | 278° |
| 2026-04-29 22:27 | 43.65799 | -45.45764 | 38251 ft | 471 kts | 278° |
| 2026-04-29 22:27 | 43.66649 | -45.54701 | 38258 ft | 468 kts | 278° |
| 2026-04-29 22:28 | 43.67491 | -45.63623 | 38259 ft | 470 kts | 278° |
| 2026-04-29 22:28 | 43.68330 | -45.72579 | 38256 ft | 470 kts | 279° |
| 2026-04-29 22:29 | 43.69160 | -45.81520 | 38261 ft | 469 kts | 279° |
| 2026-04-29 22:29 | 43.69984 | -45.90471 | 38261 ft | 471 kts | 278° |
| 2026-04-29 22:30 | 43.70802 | -45.99443 | 38264 ft | 470 kts | 278° |
| 2026-04-29 22:30 | 43.71611 | -46.08389 | 38251 ft | 469 kts | 278° |
| 2026-04-29 22:31 | 43.72417 | -46.17370 | 38265 ft | 471 kts | 278° |
| 2026-04-29 22:31 | 43.73212 | -46.26331 | 38262 ft | 468 kts | 278° |
| 2026-04-29 22:32 | 43.73999 | -46.35271 | 38268 ft | 469 kts | 278° |
| 2026-04-29 22:32 | 43.74780 | -46.44250 | 38259 ft | 470 kts | 278° |
| 2026-04-29 22:33 | 43.75553 | -46.53211 | 38264 ft | 468 kts | 278° |
| 2026-04-29 22:33 | 43.76322 | -46.62169 | 38266 ft | 471 kts | 278° |
| 2026-04-29 22:34 | 43.77080 | -46.71106 | 38269 ft | 470 kts | 278° |
| 2026-04-29 22:34 | 43.77834 | -46.80077 | 38265 ft | 469 kts | 278° |
| 2026-04-29 22:35 | 43.78589 | -46.89127 | 38265 ft | 472 kts | 278° |
| 2026-04-29 22:35 | 43.79324 | -46.98100 | 38268 ft | 471 kts | 278° |
| 2026-04-29 22:36 | 43.80056 | -47.07101 | 38264 ft | 471 kts | 278° |
| 2026-04-29 22:36 | 43.80786 | -47.16134 | 38269 ft | 472 kts | 277° |
| 2026-04-29 22:37 | 43.81506 | -47.25155 | 38260 ft | 470 kts | 277° |
| 2026-04-29 22:37 | 43.82222 | -47.34169 | 38262 ft | 473 kts | 277° |
| 2026-04-29 22:38 | 43.82930 | -47.43233 | 38255 ft | 474 kts | 277° |
| 2026-04-29 22:38 | 43.83631 | -47.52298 | 38258 ft | 473 kts | 277° |
| 2026-04-29 22:39 | 43.84327 | -47.61372 | 38269 ft | 475 kts | 277° |
| 2026-04-29 22:39 | 43.85017 | -47.70462 | 38281 ft | 473 kts | 277° |
| 2026-04-29 22:40 | 43.85699 | -47.79535 | 38256 ft | 475 kts | 277° |
| 2026-04-29 22:40 | 43.86377 | -47.88656 | 38256 ft | 476 kts | 277° |
| 2026-04-29 22:41 | 43.87045 | -47.97760 | 38277 ft | 475 kts | 277° |
| 2026-04-29 22:41 | 43.87708 | -48.06876 | 38275 ft | 476 kts | 277° |
| 2026-04-29 22:42 | 43.88363 | -48.15986 | 38264 ft | 474 kts | 277° |
| 2026-04-29 22:42 | 43.89007 | -48.25034 | 38268 ft | 475 kts | 276° |
| 2026-04-29 22:43 | 43.89648 | -48.34174 | 38276 ft | 477 kts | 276° |
| 2026-04-29 22:43 | 43.90280 | -48.43313 | 38280 ft | 476 kts | 277° |
| 2026-04-29 22:44 | 43.90909 | -48.52455 | 38278 ft | 477 kts | 277° |
| 2026-04-29 22:44 | 43.91530 | -48.61611 | 38273 ft | 476 kts | 277° |
| 2026-04-29 22:45 | 43.92142 | -48.70755 | 38274 ft | 478 kts | 276° |
| 2026-04-29 22:45 | 43.92748 | -48.79914 | 38276 ft | 475 kts | 276° |
| 2026-04-29 22:46 | 43.93343 | -48.89028 | 38277 ft | 474 kts | 276° |
| 2026-04-29 22:46 | 43.93933 | -48.98158 | 38273 ft | 476 kts | 276° |
| 2026-04-29 22:47 | 43.94517 | -49.07294 | 38275 ft | 475 kts | 276° |
| 2026-04-29 22:47 | 43.95092 | -49.16450 | 38272 ft | 477 kts | 276° |
| 2026-04-29 22:48 | 43.95659 | -49.25574 | 38278 ft | 478 kts | 276° |
| 2026-04-29 22:48 | 43.96222 | -49.34746 | 38275 ft | 477 kts | 276° |
| 2026-04-29 22:49 | 43.96774 | -49.43897 | 38272 ft | 474 kts | 276° |
| 2026-04-29 22:49 | 43.97316 | -49.52992 | 38272 ft | 471 kts | 276° |
| 2026-04-29 22:50 | 43.97851 | -49.62066 | 38275 ft | 473 kts | 275° |
| 2026-04-29 22:50 | 43.98379 | -49.71166 | 38273 ft | 472 kts | 276° |
| 2026-04-29 22:51 | 43.98899 | -49.80240 | 38274 ft | 472 kts | 275° |
| 2026-04-29 22:51 | 43.99667 | -49.93897 | 38263 ft | 473 kts | 276° |
| 2026-04-29 22:52 | 44.00085 | -50.01446 | 38272 ft | 472 kts | 275° |
| 2026-04-29 22:52 | 44.00413 | -50.10530 | 38272 ft | 470 kts | 273° |
| 2026-04-29 22:53 | 44.00626 | -50.19593 | 38273 ft | 469 kts | 273° |
| 2026-04-29 22:53 | 44.00850 | -50.28651 | 38274 ft | 470 kts | 273° |
| 2026-04-29 22:54 | 44.01092 | -50.37723 | 38273 ft | 469 kts | 273° |
| 2026-04-29 22:54 | 44.01337 | -50.46796 | 38269 ft | 472 kts | 273° |
| 2026-04-29 22:55 | 44.01577 | -50.55913 | 38273 ft | 472 kts | 273° |
| 2026-04-29 22:55 | 44.01809 | -50.65018 | 38265 ft | 472 kts | 273° |
| 2026-04-29 22:56 | 44.02031 | -50.74114 | 38269 ft | 469 kts | 273° |
| 2026-04-29 22:56 | 44.02245 | -50.83155 | 38268 ft | 468 kts | 272° |
| 2026-04-29 22:57 | 44.02452 | -50.92206 | 38274 ft | 469 kts | 273° |
| 2026-04-29 22:57 | 44.02652 | -51.01261 | 38273 ft | 469 kts | 272° |
| 2026-04-29 22:58 | 44.02845 | -51.10316 | 38270 ft | 469 kts | 272° |
| 2026-04-29 22:58 | 44.03031 | -51.19372 | 38269 ft | 469 kts | 272° |
| 2026-04-29 22:59 | 44.03210 | -51.28438 | 38270 ft | 469 kts | 272° |
| 2026-04-29 22:59 | 44.03381 | -51.37504 | 38265 ft | 469 kts | 272° |
| 2026-04-29 23:00 | 44.03545 | -51.46542 | 38271 ft | 472 kts | 272° |
| 2026-04-29 23:00 | 44.03702 | -51.55643 | 38270 ft | 471 kts | 272° |
| 2026-04-29 23:01 | 44.03854 | -51.64741 | 38267 ft | 471 kts | 272° |
| 2026-04-29 23:01 | 44.03996 | -51.73846 | 38263 ft | 471 kts | 272° |
| 2026-04-29 23:02 | 44.04133 | -51.82939 | 38267 ft | 471 kts | 272° |
| 2026-04-29 23:02 | 44.04262 | -51.92053 | 38264 ft | 470 kts | 272° |
| 2026-04-29 23:03 | 44.04384 | -52.01120 | 38269 ft | 469 kts | 272° |
| 2026-04-29 23:03 | 44.04498 | -52.10194 | 38268 ft | 469 kts | 272° |
| 2026-04-29 23:04 | 44.04605 | -52.19255 | 38265 ft | 469 kts | 272° |
| 2026-04-29 23:04 | 44.04705 | -52.28326 | 38266 ft | 470 kts | 272° |
| 2026-04-29 23:05 | 44.04798 | -52.37397 | 38262 ft | 469 kts | 272° |
| 2026-04-29 23:05 | 44.04883 | -52.46465 | 38263 ft | 470 kts | 272° |
| 2026-04-29 23:06 | 44.04961 | -52.55528 | 38265 ft | 468 kts | 272° |
| 2026-04-29 23:06 | 44.05032 | -52.64567 | 38260 ft | 467 kts | 272° |
| 2026-04-29 23:07 | 44.05096 | -52.73593 | 38262 ft | 467 kts | 271° |
| 2026-04-29 23:07 | 44.05152 | -52.82614 | 38262 ft | 467 kts | 271° |
| 2026-04-29 23:08 | 44.05202 | -52.91641 | 38261 ft | 467 kts | 271° |
| 2026-04-29 23:08 | 44.05244 | -53.00606 | 38259 ft | 467 kts | 271° |
| 2026-04-29 23:09 | 44.05279 | -53.09634 | 38260 ft | 467 kts | 271° |
| 2026-04-29 23:09 | 44.05307 | -53.18658 | 38254 ft | 466 kts | 271° |
| 2026-04-29 23:10 | 44.05328 | -53.27658 | 38257 ft | 465 kts | 271° |
| 2026-04-29 23:10 | 44.05342 | -53.36662 | 38252 ft | 466 kts | 271° |
| 2026-04-29 23:11 | 44.05349 | -53.45665 | 38254 ft | 465 kts | 271° |
| 2026-04-29 23:11 | 44.05350 | -53.54668 | 38255 ft | 466 kts | 271° |
| 2026-04-29 23:12 | 44.05342 | -53.63674 | 38249 ft | 465 kts | 271° |
| 2026-04-29 23:12 | 44.05328 | -53.72676 | 38250 ft | 466 kts | 271° |
| 2026-04-29 23:13 | 44.05307 | -53.81677 | 38248 ft | 464 kts | 271° |
| 2026-04-29 23:13 | 44.05278 | -53.90635 | 38247 ft | 464 kts | 271° |
| 2026-04-29 23:14 | 44.05243 | -53.99600 | 38249 ft | 463 kts | 271° |
| 2026-04-29 23:14 | 44.05201 | -54.08560 | 38250 ft | 464 kts | 271° |
| 2026-04-29 23:15 | 44.05151 | -54.17520 | 38248 ft | 463 kts | 271° |
| 2026-04-29 23:15 | 44.05095 | -54.26480 | 38249 ft | 464 kts | 271° |
| 2026-04-29 23:16 | 44.05032 | -54.35445 | 38232 ft | 463 kts | 270° |
| 2026-04-29 23:16 | 44.04962 | -54.44399 | 38245 ft | 463 kts | 270° |
| 2026-04-29 23:17 | 44.04884 | -54.53346 | 38243 ft | 463 kts | 270° |
| 2026-04-29 23:17 | 44.04800 | -54.62305 | 38241 ft | 465 kts | 270° |
| 2026-04-29 23:18 | 44.04709 | -54.71286 | 38238 ft | 464 kts | 270° |
| 2026-04-29 23:18 | 44.04610 | -54.80262 | 38238 ft | 465 kts | 270° |
| 2026-04-29 23:19 | 44.04505 | -54.89237 | 38237 ft | 464 kts | 270° |
| 2026-04-29 23:19 | 44.04392 | -54.98217 | 38235 ft | 465 kts | 270° |
| 2026-04-29 23:20 | 44.04272 | -55.07196 | 38238 ft | 465 kts | 270° |
| 2026-04-29 23:20 | 44.04146 | -55.16172 | 38236 ft | 465 kts | 270° |
| 2026-04-29 23:21 | 44.04012 | -55.25155 | 38238 ft | 464 kts | 270° |
| 2026-04-29 23:21 | 44.03872 | -55.34139 | 38239 ft | 465 kts | 270° |
| 2026-04-29 23:22 | 44.03725 | -55.43053 | 38235 ft | 465 kts | 270° |
| 2026-04-29 23:22 | 44.03570 | -55.52034 | 38236 ft | 465 kts | 270° |
| 2026-04-29 23:23 | 44.03408 | -55.61021 | 38231 ft | 465 kts | 270° |
| 2026-04-29 23:23 | 44.03239 | -55.70018 | 38238 ft | 466 kts | 270° |
| 2026-04-29 23:24 | 44.03063 | -55.79009 | 38236 ft | 465 kts | 270° |
| 2026-04-29 23:24 | 44.02880 | -55.88005 | 38232 ft | 466 kts | 270° |
| 2026-04-29 23:25 | 44.02689 | -55.97011 | 38233 ft | 466 kts | 270° |
| 2026-04-29 23:25 | 44.02492 | -56.06016 | 38235 ft | 467 kts | 270° |
| 2026-04-29 23:26 | 44.02287 | -56.15032 | 38227 ft | 467 kts | 270° |
| 2026-04-29 23:26 | 44.02075 | -56.24046 | 38227 ft | 467 kts | 270° |
| 2026-04-29 23:27 | 44.01856 | -56.33057 | 38229 ft | 467 kts | 270° |
| 2026-04-29 23:27 | 44.01630 | -56.42089 | 38227 ft | 468 kts | 270° |
| 2026-04-29 23:28 | 44.01396 | -56.51139 | 38224 ft | 469 kts | 269° |
| 2026-04-29 23:28 | 44.01155 | -56.60187 | 38222 ft | 469 kts | 269° |
| 2026-04-29 23:29 | 44.00906 | -56.69243 | 38224 ft | 469 kts | 269° |
| 2026-04-29 23:29 | 44.00650 | -56.78295 | 38226 ft | 469 kts | 269° |
| 2026-04-29 23:30 | 44.00387 | -56.87350 | 38219 ft | 470 kts | 269° |
| 2026-04-29 23:30 | 44.00116 | -56.96422 | 38221 ft | 470 kts | 269° |
| 2026-04-29 23:31 | 43.99824 | -57.05429 | 38220 ft | 471 kts | 269° |
| 2026-04-29 23:31 | 43.99437 | -57.14565 | 38223 ft | 471 kts | 268° |
| 2026-04-29 23:32 | 43.99033 | -57.23642 | 38221 ft | 471 kts | 268° |
| 2026-04-29 23:32 | 43.98635 | -57.32714 | 38218 ft | 471 kts | 268° |
| 2026-04-29 23:33 | 43.98237 | -57.41789 | 38219 ft | 471 kts | 268° |
| 2026-04-29 23:33 | 43.97833 | -57.50852 | 38220 ft | 471 kts | 268° |
| 2026-04-29 23:34 | 43.97425 | -57.59869 | 38214 ft | 471 kts | 268° |